Time;durP1;ratioP1;P1;durP2;ratioP2;P2;SDS_P1;SDS_P2;PMS_P1;PMS_P2;Temp;Humidity;BMP_temperature;BMP_pressure;BME280_temperature;BME280_humidity;BME280_pressure;Samples;Min_cycle;Max_cycle;Signal;HPM_P1;HPM_P2
2023/09/13 00:00:10;;;;;;;10.80;9.50;;;;;;;18.60;100.00;100492.09;5092812;28;20439;-73
2023/09/13 00:02:40;;;;;;;10.20;8.10;;;;;;;18.56;98.87;100480.00;5092570;28;20968;-73
2023/09/13 00:05:09;;;;;;;9.13;8.23;;;;;;;18.60;99.37;100472.28;5092541;28;20962;-73
2023/09/13 00:07:39;;;;;;;8.63;7.82;;;;;;;18.61;99.47;100466.66;5092846;28;20420;-73
2023/09/13 00:10:09;;;;;;;8.80;7.90;;;;;;;18.61;98.66;100466.66;5092754;28;20463;-73
2023/09/13 00:12:37;;;;;;;7.80;7.10;;;;;;;18.62;98.24;100472.91;5092400;28;20428;-73
2023/09/13 00:15:07;;;;;;;8.10;7.30;;;;;;;18.56;98.23;100463.75;5092522;28;20440;-73
2023/09/13 00:17:35;;;;;;;6.90;6.20;;;;;;;18.53;98.17;100455.22;5092359;28;20473;-72
2023/09/13 00:20:05;;;;;;;7.78;7.00;;;;;;;18.56;98.04;100452.09;5093351;28;20464;-72
2023/09/13 00:22:33;;;;;;;6.57;5.97;;;;;;;18.54;97.54;100444.16;5092480;28;20854;-72
2023/09/13 00:25:04;;;;;;;6.90;6.30;;;;;;;18.56;98.10;100435.84;5092327;28;20801;-72
2023/09/13 00:27:32;;;;;;;7.23;6.20;;;;;;;18.50;96.85;100432.09;5092858;28;20512;-73
2023/09/13 00:30:01;;;;;;;6.82;6.13;;;;;;;18.51;96.94;100432.94;5092660;28;20512;-73
2023/09/13 00:32:29;;;;;;;6.63;6.00;;;;;;;18.53;97.20;100430.81;5092227;28;20438;-73
2023/09/13 00:34:58;;;;;;;7.30;6.60;;;;;;;18.53;97.77;100431.66;5092826;28;20482;-72
2023/09/13 00:37:26;;;;;;;7.13;6.43;;;;;;;18.52;96.79;100440.03;5092192;28;21000;-72
2023/09/13 00:39:56;;;;;;;7.30;5.90;;;;;;;18.52;96.98;100435.44;5092540;28;20424;-72
2023/09/13 00:42:28;;;;;;;6.60;6.00;;;;;;;18.56;97.71;100435.84;5092767;28;20424;-72
2023/09/13 00:44:59;;;;;;;7.40;6.35;;;;;;;18.50;97.85;100440.22;5092816;28;20501;-72
2023/09/13 00:47:27;;;;;;;7.47;6.28;;;;;;;18.50;97.47;100448.38;5092775;28;20459;-72
2023/09/13 00:49:56;;;;;;;7.88;6.07;;;;;;;18.43;97.79;100444.84;5092398;28;20487;-72
2023/09/13 00:52:25;;;;;;;6.33;5.73;;;;;;;18.47;98.31;100456.91;5092310;28;20439;-72
2023/09/13 00:54:54;;;;;;;6.97;6.28;;;;;;;18.46;97.47;100457.94;5091976;28;20425;-72
2023/09/13 00:57:23;;;;;;;8.32;6.20;;;;;;;18.55;97.78;100461.28;5092298;28;20445;-72
2023/09/13 00:59:53;;;;;;;7.63;5.90;;;;;;;18.55;98.10;100470.25;5092234;28;20425;-73
2023/09/13 01:02:23;;;;;;;6.47;5.85;;;;;;;18.54;97.67;100476.72;5092327;28;20424;-73
2023/09/13 01:04:52;;;;;;;8.43;5.95;;;;;;;18.51;97.17;100482.56;5092430;28;20428;-73
2023/09/13 01:07:21;;;;;;;7.13;5.97;;;;;;;18.42;98.14;100480.31;5092336;28;20417;-72
2023/09/13 01:09:50;;;;;;;8.35;6.57;;;;;;;18.42;99.15;100489.28;5094125;28;20427;-72
2023/09/13 01:12:21;;;;;;;7.25;6.55;;;;;;;18.40;99.17;100494.06;5096086;28;20424;-72
2023/09/13 01:14:52;;;;;;;6.57;5.97;;;;;;;18.39;98.72;100494.28;5096265;28;20416;-72
2023/09/13 01:17:26;;;;;;;6.70;6.00;;;;;;;18.39;98.77;100492.38;5095686;28;20440;-72
2023/09/13 01:20:06;;;;;;;7.97;6.30;;;;;;;18.38;97.85;100498.03;5096342;28;20432;-72
2023/09/13 01:23:03;;;;;;;7.35;6.65;;;;;;;18.34;97.80;100485.97;5095632;28;20423;-72
2023/09/13 01:26:10;;;;;;;7.23;6.53;;;;;;;18.31;98.28;100479.13;5095854;28;20514;-72
2023/09/13 01:28:42;;;;;;;8.17;7.00;;;;;;;18.34;98.76;100470.53;5085904;28;20523;-72
2023/09/13 01:31:12;;;;;;;8.32;6.95;;;;;;;18.40;98.74;100460.69;5095996;28;20512;-72
2023/09/13 01:33:40;;;;;;;8.20;6.97;;;;;;;18.40;99.21;100447.97;5095431;28;20902;-72
2023/09/13 01:36:09;;;;;;;7.88;6.85;;;;;;;18.35;97.82;100439.69;5095848;28;20432;-73
2023/09/13 01:38:38;;;;;;;8.38;6.60;;;;;;;18.37;97.96;100431.31;5095785;28;20429;-73
2023/09/13 01:41:13;;;;;;;8.60;6.77;;;;;;;18.37;98.96;100426.75;5095983;28;20458;-73
2023/09/13 01:43:45;;;;;;;7.28;6.68;;;;;;;18.36;98.71;100425.06;5095238;28;20902;-73
2023/09/13 01:46:14;;;;;;;6.93;6.28;;;;;;;18.40;98.88;100422.75;5095337;28;20519;-73
2023/09/13 01:48:44;;;;;;;8.10;7.30;;;;;;;18.34;98.70;100412.78;5095299;28;20915;-73
2023/09/13 01:51:12;;;;;;;8.27;6.57;;;;;;;18.38;98.48;100408.59;5095795;28;20428;-73
2023/09/13 01:53:44;;;;;;;7.55;6.63;;;;;;;18.39;99.04;100405.66;5095840;28;20486;-73
2023/09/13 01:56:14;;;;;;;7.37;6.53;;;;;;;18.39;98.64;100410.28;5095532;28;20424;-73
2023/09/13 01:58:43;;;;;;;8.20;6.90;;;;;;;18.31;98.93;100421.38;5095282;28;20531;-73
2023/09/13 02:01:12;;;;;;;7.78;6.95;;;;;;;18.26;99.49;100416.59;5095230;28;20448;-73
2023/09/13 02:03:42;;;;;;;7.30;6.60;;;;;;;18.23;99.58;100423.28;5095409;28;20602;-73
2023/09/13 02:06:13;;;;;;;7.47;6.78;;;;;;;18.26;99.72;100424.72;5095558;28;20435;-73
2023/09/13 02:08:44;;;;;;;7.33;6.63;;;;;;;18.28;99.49;100417.22;5095264;28;20456;-73
2023/09/13 02:11:13;;;;;;;7.30;6.05;;;;;;;18.28;99.75;100416.38;5095207;28;20466;-73
2023/09/13 02:13:42;;;;;;;7.35;6.65;;;;;;;18.30;99.90;100415.09;5094961;28;20427;-73
2023/09/13 02:16:11;;;;;;;6.93;6.18;;;;;;;18.22;98.43;100408.06;5095031;28;20485;-73
2023/09/13 02:18:42;;;;;;;9.15;6.60;;;;;;;18.27;99.07;100410.13;5094998;28;20444;-73
2023/09/13 02:21:11;;;;;;;7.00;6.10;;;;;;;18.23;98.79;100408.91;5094583;28;20433;-73
2023/09/13 02:23:41;;;;;;;8.13;6.37;;;;;;;18.23;99.24;100408.91;5095048;28;20420;-73
2023/09/13 02:26:19;;;;;;;6.82;6.28;;;;;;;18.27;98.79;100415.53;5094837;28;20795;-73
2023/09/13 02:28:50;;;;;;;6.93;5.90;;;;;;;18.25;99.24;100412.25;5094657;28;20882;-73
2023/09/13 02:31:22;;;;;;;6.60;6.00;;;;;;;18.24;98.18;100411.41;5095041;28;20471;-73
2023/09/13 02:33:51;;;;;;;7.15;6.45;;;;;;;18.30;99.04;100406.97;5094834;28;20932;-74
2023/09/13 02:36:20;;;;;;;7.65;6.88;;;;;;;18.23;98.75;100419.72;5094767;28;20490;-74
2023/09/13 02:38:49;;;;;;;7.50;6.80;;;;;;;18.29;99.42;100420.75;5094490;28;20454;-74
2023/09/13 02:41:18;;;;;;;7.73;7.03;;;;;;;18.27;99.39;100433.69;5094817;28;20462;-74
2023/09/13 02:43:46;;;;;;;8.50;7.05;;;;;;;18.28;99.65;100444.31;5094056;28;20925;-74
2023/09/13 02:46:16;;;;;;;8.60;7.70;;;;;;;18.22;99.41;100453.28;5094482;28;20485;-74
2023/09/13 02:48:45;;;;;;;8.20;7.40;;;;;;;18.21;99.54;100448.94;5094514;28;20427;-74
2023/09/13 02:51:14;;;;;;;8.68;7.82;;;;;;;18.23;100.00;100455.78;5094537;28;20493;-74
2023/09/13 02:53:43;;;;;;;8.18;7.43;;;;;;;18.23;100.00;100453.09;5094101;28;20420;-74
2023/09/13 02:56:14;;;;;;;8.68;7.63;;;;;;;18.20;99.61;100452.69;5094194;28;20432;-74
2023/09/13 02:58:43;;;;;;;8.13;7.32;;;;;;;18.21;100.00;100460.63;5094408;28;20480;-74
2023/09/13 03:01:13;;;;;;;8.43;7.63;;;;;;;18.17;99.88;100453.13;5093944;28;20439;-74
2023/09/13 03:03:43;;;;;;;8.38;7.68;;;;;;;18.18;100.00;100461.03;5094062;28;20431;-73
2023/09/13 03:06:16;;;;;;;8.70;7.90;;;;;;;18.19;100.00;100456.44;5093981;28;20432;-74
2023/09/13 03:08:45;;;;;;;9.18;8.27;;;;;;;18.15;99.77;100455.22;5094021;28;20890;-74
2023/09/13 03:11:14;;;;;;;8.40;7.70;;;;;;;18.14;100.00;100443.56;5093983;28;20867;-74
2023/09/13 03:13:43;;;;;;;8.73;7.93;;;;;;;18.16;99.48;100440.63;5093418;28;20902;-74
2023/09/13 03:16:13;;;;;;;8.88;8.07;;;;;;;18.13;99.86;100441.06;5094572;28;20464;-74
2023/09/13 03:18:44;;;;;;;9.15;8.02;;;;;;;18.12;99.89;100444.81;5093747;28;20444;-74
2023/09/13 03:21:15;;;;;;;9.68;8.88;;;;;;;18.02;99.99;100439.84;5093667;28;20431;-73
2023/09/13 03:23:46;;;;;;;10.18;9.18;;;;;;;18.01;100.00;100440.09;5093715;28;20486;-73
2023/09/13 03:26:16;;;;;;;9.85;8.93;;;;;;;18.04;100.00;100443.19;5093731;28;20432;-73
2023/09/13 03:28:48;;;;;;;10.32;9.32;;;;;;;17.98;100.00;100449.44;5093536;28;20447;-73
2023/09/13 03:31:20;;;;;;;11.02;9.98;;;;;;;17.93;100.00;100456.56;5093535;28;20461;-73
2023/09/13 03:33:52;;;;;;;11.25;10.02;;;;;;;17.88;100.00;100450.97;5092745;28;20914;-73
2023/09/13 03:36:21;;;;;;;10.67;9.77;;;;;;;17.92;100.00;100450.31;5093443;28;20427;-74
2023/09/13 03:38:49;;;;;;;10.75;9.70;;;;;;;17.95;100.00;100459.88;5093370;28;20444;-74
2023/09/13 03:41:22;;;;;;;10.33;9.37;;;;;;;17.96;100.00;100456.13;5093298;28;20428;-74
2023/09/13 03:43:51;;;;;;;11.63;10.52;;;;;;;17.95;100.00;100465.31;5092900;28;20856;-74
2023/09/13 03:46:20;;;;;;;12.05;10.98;;;;;;;17.97;100.00;100457.81;5093842;28;20437;-74
2023/09/13 03:48:50;;;;;;;11.73;10.63;;;;;;;17.90;100.00;100457.84;5093519;28;20425;-74
2023/09/13 03:51:18;;;;;;;14.52;13.23;;;;;;;17.82;100.00;100454.53;5093003;28;20429;-74
2023/09/13 03:53:49;;;;;;;14.35;13.05;;;;;;;17.84;100.00;100458.72;5093324;28;20421;-74
2023/09/13 03:56:17;;;;;;;16.45;14.77;;;;;;;17.88;100.00;100453.66;5092763;28;20837;-74
2023/09/13 03:58:49;;;;;;;16.65;15.05;;;;;;;17.85;100.00;100449.50;5093059;28;20630;-74
2023/09/13 04:01:21;;;;;;;16.25;14.75;;;;;;;17.90;100.00;100457.00;5093067;28;20467;-74
2023/09/13 04:03:53;;;;;;;18.70;16.90;;;;;;;17.94;100.00;100452.84;5092993;28;20424;-74
2023/09/13 04:06:24;;;;;;;18.25;16.58;;;;;;;17.96;100.00;100450.72;5093288;28;20428;-74
2023/09/13 04:08:55;;;;;;;19.38;17.58;;;;;;;17.91;100.00;100459.47;5093088;28;20424;-74
2023/09/13 04:11:28;;;;;;;19.90;18.10;;;;;;;17.91;100.00;100469.50;5093008;28;20424;-74
2023/09/13 04:13:57;;;;;;;18.75;17.15;;;;;;;17.93;100.00;100470.13;5093188;28;20452;-74
2023/09/13 04:16:25;;;;;;;18.65;16.95;;;;;;;17.95;100.00;100470.72;5092875;28;20435;-74
2023/09/13 04:18:57;;;;;;;18.25;16.65;;;;;;;17.92;100.00;100477.41;5093747;28;20876;-73
2023/09/13 04:21:26;;;;;;;19.25;17.45;;;;;;;17.84;100.00;100474.97;5092905;28;20541;-73
2023/09/13 04:23:58;;;;;;;19.35;17.48;;;;;;;17.85;100.00;100473.06;5092571;28;20425;-73
2023/09/13 04:26:28;;;;;;;18.70;17.00;;;;;;;17.82;100.00;100470.78;5092638;28;20421;-73
2023/09/13 04:29:00;;;;;;;19.00;17.10;;;;;;;17.85;100.00;100471.19;5092396;28;20787;-73
2023/09/13 04:31:32;;;;;;;19.27;17.30;;;;;;;17.81;100.00;100474.56;5092679;28;20429;-73
2023/09/13 04:34:03;;;;;;;18.58;16.88;;;;;;;17.87;100.00;100473.69;5091129;28;20425;-73
2023/09/13 04:36:31;;;;;;;19.45;17.63;;;;;;;17.82;100.00;100470.78;5092806;28;20464;-73
2023/09/13 04:39:00;;;;;;;18.63;16.95;;;;;;;17.82;100.00;100477.03;5092210;28;20447;-73
2023/09/13 04:41:28;;;;;;;19.77;17.95;;;;;;;17.85;100.00;100476.59;5092796;28;20428;-73
2023/09/13 04:43:57;;;;;;;20.65;18.73;;;;;;;17.87;100.00;100473.69;5093417;28;20455;-73
2023/09/13 04:46:28;;;;;;;20.52;18.63;;;;;;;17.85;100.00;100481.19;5092414;28;20795;-73
2023/09/13 04:48:57;;;;;;;21.20;19.13;;;;;;;17.85;100.00;100486.59;5092598;28;20452;-73
2023/09/13 04:51:28;;;;;;;21.85;19.85;;;;;;;17.82;100.00;100487.84;5092616;28;20435;-73
2023/09/13 04:53:59;;;;;;;23.17;20.88;;;;;;;17.81;100.00;100485.38;5092508;28;20507;-72
2023/09/13 04:56:28;;;;;;;24.90;22.35;;;;;;;17.77;100.00;100478.72;5092576;28;20460;-73
2023/09/13 04:58:56;;;;;;;24.63;22.00;;;;;;;17.81;100.00;100471.84;5092345;28;20510;-73
2023/09/13 05:01:26;;;;;;;24.30;21.80;;;;;;;17.83;100.00;100477.88;5092057;28;20863;-73
2023/09/13 05:03:56;;;;;;;22.83;20.63;;;;;;;17.82;100.00;100471.63;5092605;28;20429;-73
2023/09/13 05:06:26;;;;;;;23.48;21.10;;;;;;;17.77;100.00;100476.03;5092163;28;20420;-73
2023/09/13 05:08:56;;;;;;;24.97;21.57;;;;;;;17.80;100.00;100475.59;5092209;28;20515;-73
2023/09/13 05:11:24;;;;;;;21.03;18.93;;;;;;;17.83;100.00;100467.03;5094476;28;20211;-73
2023/09/13 05:14:09;;;;;;;24.98;22.45;;;;;;;17.88;100.00;100469.91;5092383;28;20464;-73
2023/09/13 05:16:38;;;;;;;23.67;21.10;;;;;;;17.86;100.00;100467.44;5092668;28;20514;-73
2023/09/13 05:19:09;;;;;;;26.30;22.83;;;;;;;17.86;100.00;100472.84;5092301;28;20513;-73
2023/09/13 05:21:38;;;;;;;25.30;22.70;;;;;;;17.88;100.00;100476.16;5091872;28;20515;-73
2023/09/13 05:24:08;;;;;;;23.13;20.70;;;;;;;17.94;100.00;100471.78;5093192;28;20256;-74
2023/09/13 05:26:38;;;;;;;22.67;19.67;;;;;;;17.97;100.00;100477.59;5093174;28;20205;-73
2023/09/13 05:29:09;;;;;;;26.42;22.10;;;;;;;17.99;100.00;100482.78;5092721;28;20421;-73
2023/09/13 05:31:38;;;;;;;26.15;23.25;;;;;;;18.00;100.00;100476.34;5091997;28;20456;-73
2023/09/13 05:34:09;;;;;;;27.57;24.43;;;;;;;17.95;100.00;100476.13;5091401;28;21069;-74
2023/09/13 05:36:39;;;;;;;28.38;24.70;;;;;;;17.94;100.00;100486.16;5092004;28;20425;-74
2023/09/13 05:39:07;;;;;;;29.00;25.85;;;;;;;17.92;100.00;100487.41;5091787;28;20445;-74
2023/09/13 05:41:37;;;;;;;26.10;23.03;;;;;;;17.94;100.00;100491.59;5093090;28;20288;-74
2023/09/13 05:44:09;;;;;;;28.55;24.80;;;;;;;17.96;100.00;100502.19;5092262;28;20440;-74
2023/09/13 05:46:37;;;;;;;27.88;24.77;;;;;;;17.98;100.00;100502.81;5092387;28;20474;-74
2023/09/13 05:49:06;;;;;;;26.80;24.00;;;;;;;17.99;100.00;100504.47;5091778;28;20424;-74
2023/09/13 05:51:36;;;;;;;27.58;24.55;;;;;;;18.00;100.00;100506.13;5092777;28;20420;-74
2023/09/13 05:54:06;;;;;;;31.35;26.45;;;;;;;17.98;100.00;100506.34;5091296;28;21024;-74
2023/09/13 05:56:35;;;;;;;32.83;26.52;;;;;;;18.00;100.00;100516.97;5094428;28;20511;-74
2023/09/13 05:59:03;;;;;;;30.00;25.53;;;;;;;18.01;100.00;100518.66;5095247;28;20495;-74
2023/09/13 06:01:34;;;;;;;28.25;25.33;;;;;;;17.97;100.00;100518.25;5095350;28;20856;-74
2023/09/13 06:04:05;;;;;;;32.97;27.00;;;;;;;17.98;100.00;100513.66;5095152;28;20976;-74
2023/09/13 06:06:35;;;;;;;27.98;25.02;;;;;;;18.01;100.00;100511.34;5095205;28;20435;-67
2023/09/13 06:09:03;;;;;;;26.42;23.73;;;;;;;18.02;100.00;100525.69;5094768;28;20926;-67
2023/09/13 06:11:33;;;;;;;25.90;23.10;;;;;;;18.04;100.00;100521.75;5095702;28;20475;-73
2023/09/13 06:14:07;;;;;;;28.70;24.35;;;;;;;18.04;100.00;100519.06;5095030;28;20452;-73
2023/09/13 06:16:40;;;;;;;23.65;21.13;;;;;;;18.10;100.00;100530.91;5096188;28;20476;-74
2023/09/13 06:19:09;;;;;;;26.25;23.33;;;;;;;18.10;100.00;100533.59;5094987;28;20451;-74
2023/09/13 06:21:37;;;;;;;26.75;22.00;;;;;;;18.11;100.00;100543.41;5095908;28;20424;-74
2023/09/13 06:24:06;;;;;;;25.85;23.05;;;;;;;18.08;100.00;100541.13;5094514;28;20424;-74
2023/09/13 06:26:36;;;;;;;26.00;22.48;;;;;;;18.10;100.00;100542.56;5095171;28;20435;-73
2023/09/13 06:29:06;;;;;;;25.33;22.02;;;;;;;18.10;100.00;100544.44;5094581;28;20978;-73
2023/09/13 06:31:35;;;;;;;25.25;21.65;;;;;;;18.11;100.00;100552.38;5094434;28;20775;-73
2023/09/13 06:34:04;;;;;;;24.50;21.90;;;;;;;18.11;100.00;100552.38;5094625;28;20929;-73
2023/09/13 06:36:51;;;;;;;23.80;21.23;;;;;;;18.12;100.00;100558.59;5094647;28;20424;-73
2023/09/13 06:39:20;;;;;;;26.88;24.08;;;;;;;18.14;100.00;100565.50;5094958;28;20445;-74
2023/09/13 06:41:50;;;;;;;24.05;21.58;;;;;;;18.14;100.00;100556.53;5094790;28;20421;-73
2023/09/13 06:44:19;;;;;;;20.50;18.58;;;;;;;18.12;100.00;100569.44;5094851;28;20420;-74
2023/09/13 06:47:07;;;;;;;18.58;16.77;;;;;;;18.14;100.00;100562.78;5095711;28;20744;-73
2023/09/13 06:49:36;;;;;;;18.88;17.08;;;;;;;18.20;100.00;100558.38;5094489;28;20428;-73
2023/09/13 06:52:06;;;;;;;17.38;15.68;;;;;;;18.19;100.00;100565.66;5095116;28;20520;-73
2023/09/13 06:54:37;;;;;;;15.40;14.00;;;;;;;18.22;100.00;100575.22;5095339;28;20508;-73
2023/09/13 06:57:11;;;;;;;15.30;14.00;;;;;;;18.27;100.00;100571.88;5095219;28;20460;-73
2023/09/13 06:59:45;;;;;;;15.65;14.25;;;;;;;18.30;100.00;100571.47;5094310;28;20476;-73
2023/09/13 07:02:24;;;;;;;14.80;13.30;;;;;;;18.34;100.00;100570.00;5094087;28;20452;-73
2023/09/13 07:05:04;;;;;;;15.25;13.75;;;;;;;18.35;100.00;100577.09;5094343;28;20416;-73
2023/09/13 07:07:36;;;;;;;14.48;13.18;;;;;;;18.38;100.00;100574.78;5092895;28;20452;-74
2023/09/13 07:10:05;;;;;;;15.25;13.85;;;;;;;18.41;100.00;100582.47;5094010;28;20420;-74
2023/09/13 07:12:34;;;;;;;15.73;14.23;;;;;;;18.46;100.00;100588.06;5093995;28;20435;-74
2023/09/13 07:15:07;;;;;;;14.65;13.35;;;;;;;18.44;100.00;100584.75;5093893;28;20456;-73
2023/09/13 07:17:36;;;;;;;14.93;13.65;;;;;;;18.44;100.00;100590.16;5093794;28;20463;-74
2023/09/13 07:20:10;;;;;;;14.82;13.43;;;;;;;18.37;100.00;100589.38;5094512;28;20440;-74
2023/09/13 07:22:39;;;;;;;15.13;13.82;;;;;;;18.37;100.00;100594.78;5093959;28;20504;-72
2023/09/13 07:25:08;;;;;;;16.40;14.80;;;;;;;18.35;100.00;100601.47;5093860;28;20509;-73
2023/09/13 07:27:41;;;;;;;15.27;14.00;;;;;;;18.34;100.00;100606.06;5093664;28;20474;-73
2023/09/13 07:30:10;;;;;;;15.65;14.30;;;;;;;18.35;100.00;100602.31;5094032;28;20520;-73
2023/09/13 07:32:39;;;;;;;15.82;14.32;;;;;;;18.38;100.00;100609.19;5093833;28;20432;-74
2023/09/13 07:35:08;;;;;;;15.98;14.57;;;;;;;18.35;100.00;100607.72;5093111;28;20849;-74
2023/09/13 07:37:36;;;;;;;16.27;14.77;;;;;;;18.41;100.00;100606.88;5093226;28;20925;-74
2023/09/13 07:40:05;;;;;;;17.80;16.23;;;;;;;18.44;100.00;100601.00;5093279;28;20444;-73
2023/09/13 07:42:34;;;;;;;16.60;15.17;;;;;;;18.48;100.00;100613.09;5093265;28;20463;-73
2023/09/13 07:45:04;;;;;;;18.70;16.92;;;;;;;18.52;100.00;100608.94;5093534;28;20464;-73
2023/09/13 07:47:33;;;;;;;17.33;15.75;;;;;;;18.52;100.00;100603.53;5093448;28;20431;-73
2023/09/13 07:50:02;;;;;;;18.03;16.40;;;;;;;18.52;100.00;100605.41;5093742;28;20424;-73
2023/09/13 07:52:32;;;;;;;18.77;17.17;;;;;;;18.56;100.00;100610.16;5093287;28;20425;-74
2023/09/13 07:55:21;;;;;;;19.02;17.33;;;;;;;18.63;100.00;100619.09;5093753;28;20460;-73
2023/09/13 07:57:51;;;;;;;19.03;17.43;;;;;;;18.69;100.00;100623.69;5093401;28;20432;-73
2023/09/13 08:00:23;;;;;;;17.10;15.60;;;;;;;18.80;100.00;100632.19;5094000;28;20476;-73
2023/09/13 08:02:51;;;;;;;16.27;14.88;;;;;;;18.76;100.00;100636.38;5092737;28;20503;-73
2023/09/13 08:05:23;;;;;;;13.93;12.83;;;;;;;18.83;100.00;100631.75;5092990;28;20474;-74
2023/09/13 08:07:56;;;;;;;13.25;11.93;;;;;;;18.84;100.00;100638.81;5093234;28;20433;-73
2023/09/13 08:10:28;;;;;;;13.10;12.00;;;;;;;18.81;99.64;100644.69;5092725;28;20795;-74
2023/09/13 08:13:00;;;;;;;14.20;13.10;;;;;;;18.76;98.66;100652.66;5092825;28;20466;-74
2023/09/13 08:15:32;;;;;;;15.27;13.98;;;;;;;18.77;100.00;100654.31;5091861;28;20428;-73
2023/09/13 08:18:17;;;;;;;13.95;12.75;;;;;;;18.76;99.39;100655.34;5091312;28;20460;-73
2023/09/13 08:20:50;;;;;;;13.57;12.48;;;;;;;18.75;99.63;100654.53;5091029;28;20527;-73
2023/09/13 08:23:18;;;;;;;13.02;11.95;;;;;;;18.79;100.00;100657.63;5093430;28;20438;-73
2023/09/13 08:25:50;;;;;;;14.48;13.32;;;;;;;18.76;98.67;100658.06;5092407;28;20802;-73
2023/09/13 08:28:23;;;;;;;13.37;12.27;;;;;;;18.79;98.88;100665.78;5093449;28;20511;-74
2023/09/13 08:30:55;;;;;;;15.30;13.90;;;;;;;18.79;98.62;100671.19;5092515;28;20943;-74
2023/09/13 08:33:27;;;;;;;15.38;14.07;;;;;;;18.79;98.09;100669.31;5092510;28;20428;-74
2023/09/13 08:35:57;;;;;;;15.82;14.55;;;;;;;18.84;99.06;100674.91;5092370;28;20430;-74
2023/09/13 08:38:26;;;;;;;15.15;13.85;;;;;;;18.87;98.67;100687.25;5092211;28;20790;-74
2023/09/13 08:40:54;;;;;;;16.10;14.80;;;;;;;18.90;99.58;100681.38;5092848;28;20440;-74
2023/09/13 08:43:27;;;;;;;16.17;14.95;;;;;;;18.93;99.62;100689.91;5092801;28;20448;-73
2023/09/13 08:45:58;;;;;;;16.73;15.32;;;;;;;18.96;100.00;100685.94;5092154;28;20965;-73
2023/09/13 08:48:29;;;;;;;16.67;15.20;;;;;;;18.97;99.50;100693.03;5092339;28;20421;-74
2023/09/13 08:50:58;;;;;;;12.37;11.27;;;;;;;18.96;97.50;100692.19;5092624;28;20447;-73
2023/09/13 08:53:30;;;;;;;11.25;10.25;;;;;;;19.02;96.41;100693.19;5091976;28;20428;-74
2023/09/13 08:56:00;;;;;;;10.75;9.80;;;;;;;19.06;95.10;100698.00;5093178;28;20514;-73
2023/09/13 08:58:32;;;;;;;10.43;9.63;;;;;;;19.14;95.15;100699.63;5092651;28;20424;-73
2023/09/13 09:01:09;;;;;;;10.77;9.77;;;;;;;19.19;94.13;100697.06;5092128;28;20445;-73
2023/09/13 09:03:38;;;;;;;9.43;8.57;;;;;;;19.18;93.07;100695.41;5091964;28;20491;-73
2023/09/13 09:06:12;;;;;;;10.25;9.35;;;;;;;19.18;93.79;100698.94;5092171;28;20428;-74
2023/09/13 09:08:42;;;;;;;9.38;8.57;;;;;;;19.18;94.36;100695.41;5092120;28;20512;-73
2023/09/13 09:11:11;;;;;;;10.32;9.40;;;;;;;19.19;93.77;100697.06;5091966;28;20417;-73
2023/09/13 09:13:41;;;;;;;8.82;8.13;;;;;;;19.22;93.91;100702.91;5092083;28;20429;-73
2023/09/13 09:16:16;;;;;;;10.33;7.70;;;;;;;19.25;94.47;100691.59;5092980;28;20238;-73
2023/09/13 09:18:45;;;;;;;8.45;7.72;;;;;;;19.31;94.73;100703.50;5092458;28;20465;-73
2023/09/13 09:21:19;;;;;;;9.68;8.88;;;;;;;19.38;96.78;100704.28;5092306;28;20437;-74
2023/09/13 09:23:51;;;;;;;10.65;9.75;;;;;;;19.33;94.56;100709.53;5092234;28;20469;-74
2023/09/13 09:26:19;;;;;;;10.52;9.63;;;;;;;19.35;95.65;100707.41;5091698;28;20874;-74
2023/09/13 09:28:51;;;;;;;10.38;9.48;;;;;;;19.34;94.73;100710.34;5092062;28;20432;-74
2023/09/13 09:31:28;;;;;;;9.63;8.82;;;;;;;19.31;94.62;100714.34;5094564;28;20427;-74
2023/09/13 09:34:09;;;;;;;9.85;8.95;;;;;;;19.34;95.44;100710.34;5094702;28;20475;-73
2023/09/13 09:36:42;;;;;;;8.90;8.10;;;;;;;19.35;95.37;100718.28;5095124;28;20512;-73
2023/09/13 09:39:11;;;;;;;9.48;8.68;;;;;;;19.34;96.42;100713.91;5095672;28;20836;-73
2023/09/13 09:41:40;;;;;;;9.75;8.95;;;;;;;19.30;96.10;100719.97;5095218;28;20433;-72
2023/09/13 09:44:08;;;;;;;10.88;9.98;;;;;;;19.30;98.06;100715.38;5095508;28;20494;-72
2023/09/13 09:46:40;;;;;;;8.88;8.10;;;;;;;19.28;97.89;100712.03;5096608;28;20425;-72
2023/09/13 09:49:10;;;;;;;7.97;7.28;;;;;;;19.26;97.75;100714.16;5096131;28;20452;-72
2023/09/13 09:51:39;;;;;;;9.82;8.55;;;;;;;19.22;98.73;100715.63;5095976;28;20463;-72
2023/09/13 09:54:07;;;;;;;10.48;9.38;;;;;;;19.18;99.93;100717.13;5095498;28;20432;-71
2023/09/13 09:56:36;;;;;;;9.40;8.50;;;;;;;19.17;100.00;100726.31;5095413;28;20464;-72
2023/09/13 09:59:05;;;;;;;9.35;7.82;;;;;;;19.05;100.00;100725.31;5095497;28;20511;-72
2023/09/13 10:01:33;;;;;;;7.30;6.60;;;;;;;19.04;99.17;100720.97;5095490;28;20531;-71
2023/09/13 10:04:10;;;;;;;8.07;7.28;;;;;;;18.99;100.00;100732.47;5095228;28;20420;-73
2023/09/13 10:06:55;;;;;;;8.63;7.45;;;;;;;18.98;100.00;100732.66;5095230;28;20906;-74
2023/09/13 10:09:24;;;;;;;11.73;7.88;;;;;;;18.85;100.00;100738.13;5095124;28;20890;-74
2023/09/13 10:12:03;;;;;;;9.43;8.60;;;;;;;18.88;100.00;100735.84;5094787;28;20877;-74
2023/09/13 10:14:32;;;;;;;10.10;9.20;;;;;;;18.88;100.00;100743.97;5095362;28;20428;-74
2023/09/13 10:17:03;;;;;;;10.18;9.18;;;;;;;18.82;100.00;100750.25;5095189;28;20517;-74
2023/09/13 10:19:35;;;;;;;9.82;8.93;;;;;;;18.77;100.00;100751.97;5094942;28;20478;-74
2023/09/13 10:22:06;;;;;;;9.98;8.63;;;;;;;18.81;100.00;100761.31;5094855;28;20444;-75
2023/09/13 10:24:39;;;;;;;10.15;9.15;;;;;;;18.79;100.00;100760.69;5094800;28;20420;-75
2023/09/13 10:27:09;;;;;;;9.38;8.07;;;;;;;18.76;100.00;100766.56;5094581;28;20894;-74
2023/09/13 10:29:41;;;;;;;6.30;5.70;;;;;;;18.57;100.00;100769.09;5094756;28;20425;-75
2023/09/13 10:32:16;;;;;;;6.20;5.70;;;;;;;18.55;100.00;100770.34;5094930;28;20793;-75
2023/09/13 10:34:49;;;;;;;6.15;5.65;;;;;;;18.56;100.00;100778.25;5095447;28;20421;-75
2023/09/13 10:37:33;;;;;;;5.13;4.70;;;;;;;18.51;100.00;100780.78;5094582;28;20429;-74
2023/09/13 10:40:10;;;;;;;5.20;4.70;;;;;;;18.49;100.00;100792.88;5094835;28;20437;-75
2023/09/13 10:42:41;;;;;;;5.00;4.60;;;;;;;18.46;100.00;100794.09;5094124;28;20441;-74
2023/09/13 10:45:18;;;;;;;5.07;4.57;;;;;;;18.41;100.00;100796.63;5094161;28;21070;-75
2023/09/13 10:47:51;;;;;;;5.93;5.40;;;;;;;18.44;100.00;100789.94;5094459;28;20434;-74
2023/09/13 10:50:24;;;;;;;5.65;5.15;;;;;;;18.40;100.00;100797.66;5094852;28;20531;-75
2023/09/13 10:52:57;;;;;;;6.57;6.00;;;;;;;18.33;99.63;100802.25;5094581;28;20429;-74
2023/09/13 10:55:30;;;;;;;7.33;6.77;;;;;;;18.32;99.89;100802.47;5094371;28;20481;-74
2023/09/13 10:58:04;;;;;;;7.20;6.60;;;;;;;18.40;100.00;100805.78;5094354;28;20508;-75
2023/09/13 11:00:37;;;;;;;9.13;8.32;;;;;;;18.34;99.63;100806.63;5093778;28;20859;-75
2023/09/13 11:03:10;;;;;;;9.10;8.23;;;;;;;18.29;99.77;100814.53;5094070;28;20440;-76
2023/09/13 11:05:43;;;;;;;8.73;7.97;;;;;;;18.24;99.89;100809.78;5093739;28;20910;-75
2023/09/13 11:08:30;;;;;;;7.75;7.10;;;;;;;18.22;99.65;100819.13;5094146;28;20533;-75
2023/09/13 11:11:17;;;;;;;6.60;6.00;;;;;;;18.24;100.00;100822.47;5095103;28;20189;-75
2023/09/13 11:13:53;;;;;;;8.38;7.57;;;;;;;18.27;99.95;100824.78;5094087;28;20836;-75
2023/09/13 11:16:26;;;;;;;8.75;8.02;;;;;;;18.32;99.95;100829.56;5093680;28;20429;-75
2023/09/13 11:19:02;;;;;;;8.45;7.70;;;;;;;18.30;99.60;100827.06;5094083;28;20470;-75
2023/09/13 11:21:50;;;;;;;8.60;7.80;;;;;;;18.30;99.80;100837.91;5093558;28;20507;-75
2023/09/13 11:24:43;;;;;;;7.40;6.70;;;;;;;18.32;100.00;100830.41;5093838;28;20425;-75
2023/09/13 11:27:33;;;;;;;6.85;6.25;;;;;;;18.35;100.00;100827.28;5093262;28;20867;-75
2023/09/13 11:30:06;;;;;;;6.60;6.10;;;;;;;18.41;99.90;100833.72;5093678;28;20420;-75